Time;durP1;ratioP1;P1;durP2;ratioP2;P2;SDS_P1;SDS_P2;PMS_P1;PMS_P2;Temp;Humidity;BMP_temperature;BMP_pressure;BME280_temperature;BME280_humidity;BME280_pressure;Samples;Min_cycle;Max_cycle;Signal;HPM_P1;HPM_P2
2022/02/27 00:00:56;;;;;;;24.88;5.93;;;;;;;0.75;100.00;103117.59;5224024;28;20449;-69
2022/02/27 00:03:26;;;;;;;21.40;5.28;;;;;;;0.74;100.00;103110.53;5223807;28;20025;-69
2022/02/27 00:05:57;;;;;;;19.67;5.60;;;;;;;0.78;100.00;103121.88;5222348;28;20025;-69
2022/02/27 00:08:27;;;;;;;15.43;5.43;;;;;;;0.80;100.00;103108.63;5223587;28;20152;-69
2022/02/27 00:10:57;;;;;;;18.10;5.40;;;;;;;0.80;100.00;103104.19;5223767;28;20452;-69
2022/02/27 00:13:28;;;;;;;23.23;6.22;;;;;;;0.81;100.00;103108.59;5223774;28;20459;-69
2022/02/27 00:15:58;;;;;;;18.85;5.47;;;;;;;0.81;100.00;103100.66;5223442;28;20106;-69
2022/02/27 00:18:29;;;;;;;16.60;5.18;;;;;;;0.83;100.00;103104.13;5223751;28;20116;-69
2022/02/27 00:21:00;;;;;;;15.75;5.00;;;;;;;0.83;100.00;103101.47;5224112;28;20498;-69
2022/02/27 00:23:31;;;;;;;23.65;5.78;;;;;;;0.85;100.00;103104.06;5223315;28;20025;-69
2022/02/27 00:26:01;;;;;;;25.83;6.07;;;;;;;0.86;100.00;103098.75;5221956;28;20025;-69
2022/02/27 00:28:32;;;;;;;23.13;5.38;;;;;;;0.91;100.00;103096.81;5221959;28;20021;-69
2022/02/27 00:31:02;;;;;;;25.98;5.50;;;;;;;0.92;100.00;103095.03;5223522;28;20033;-69
2022/02/27 00:33:33;;;;;;;20.00;4.65;;;;;;;0.92;100.00;103093.25;5223347;28;20086;-69
2022/02/27 00:36:04;;;;;;;12.75;4.45;;;;;;;0.92;100.00;103095.03;5221845;28;20033;-69
2022/02/27 00:38:35;;;;;;;21.40;5.20;;;;;;;0.89;100.00;103093.34;5223019;28;20033;-69
2022/02/27 00:41:05;;;;;;;25.85;5.00;;;;;;;0.90;100.00;103095.06;5221650;28;20036;-69
2022/02/27 00:43:36;;;;;;;27.38;5.50;;;;;;;0.92;100.00;103097.69;5223449;28;20020;-69
2022/02/27 00:46:07;;;;;;;28.85;6.30;;;;;;;0.89;100.00;103095.97;5222772;28;20017;-69
2022/02/27 00:48:38;;;;;;;21.23;4.85;;;;;;;0.90;100.00;103096.84;5221710;28;20056;-71
2022/02/27 00:51:09;;;;;;;19.58;5.03;;;;;;;0.88;100.00;103096.91;5223354;28;20036;-69
2022/02/27 00:53:39;;;;;;;19.88;5.03;;;;;;;0.86;100.00;103103.16;5222778;28;20366;-69
2022/02/27 00:56:10;;;;;;;26.35;5.00;;;;;;;0.82;100.00;103101.53;5222638;28;20020;-69
2022/02/27 00:58:40;;;;;;;15.77;5.60;;;;;;;0.80;100.00;103098.91;5223213;28;20027;-69
2022/02/27 01:01:11;;;;;;;25.13;5.82;;;;;;;0.78;100.00;103096.34;5223196;28;20020;-69
2022/02/27 01:03:41;;;;;;;18.50;5.30;;;;;;;0.78;100.00;103091.03;5222914;28;20118;-69
2022/02/27 01:06:12;;;;;;;21.65;5.07;;;;;;;0.76;100.00;103092.03;5222061;28;20179;-69
2022/02/27 01:08:43;;;;;;;18.38;4.60;;;;;;;0.72;100.00;103093.88;5222594;28;20017;-68
2022/02/27 01:11:14;;;;;;;24.67;4.72;;;;;;;0.73;100.00;103092.09;5222681;28;20067;-69
2022/02/27 01:13:45;;;;;;;15.10;4.70;;;;;;;0.70;100.00;103086.91;5222779;28;20125;-69
2022/02/27 01:16:15;;;;;;;17.83;4.72;;;;;;;0.67;100.00;103084.38;5222807;28;20024;-69
2022/02/27 01:18:46;;;;;;;15.35;4.07;;;;;;;0.65;100.00;103080.91;5222187;28;20054;-68
2022/02/27 01:21:16;;;;;;;14.60;4.88;;;;;;;0.66;100.00;103078.22;5222646;28;20049;-70
2022/02/27 01:23:47;;;;;;;19.92;4.63;;;;;;;0.65;100.00;103081.78;5220663;28;20463;-69
2022/02/27 01:26:18;;;;;;;15.70;4.90;;;;;;;0.60;100.00;103086.31;5221921;28;20040;-69
2022/02/27 01:28:48;;;;;;;25.73;4.60;;;;;;;0.54;100.00;103089.16;5223139;28;20043;-69
2022/02/27 01:31:19;;;;;;;18.52;4.38;;;;;;;0.48;100.00;103097.28;5222066;28;20108;-68
2022/02/27 01:33:49;;;;;;;18.45;5.25;;;;;;;0.43;100.00;103099.19;5222479;28;20483;-69
2022/02/27 01:36:20;;;;;;;17.65;5.00;;;;;;;0.39;100.00;103094.91;5221722;28;20565;-68
2022/02/27 01:38:50;;;;;;;20.23;4.57;;;;;;;0.41;100.00;103095.75;5222185;28;20119;-68
2022/02/27 01:41:21;;;;;;;20.60;4.53;;;;;;;0.40;100.00;103094.00;5222034;28;20182;-68
2022/02/27 01:43:52;;;;;;;17.65;3.80;;;;;;;0.36;100.00;103092.38;5220859;28;20031;-68
2022/02/27 01:46:22;;;;;;;21.20;5.18;;;;;;;0.33;100.00;103093.31;5221870;28;20031;-69
2022/02/27 01:48:52;;;;;;;23.13;4.68;;;;;;;0.30;100.00;103085.47;5222466;28;20378;-69
2022/02/27 01:51:23;;;;;;;15.07;4.82;;;;;;;0.21;100.00;103088.41;5221892;28;20096;-68
2022/02/27 01:53:53;;;;;;;16.08;4.53;;;;;;;0.12;100.00;103089.53;5220611;28;20526;-68
2022/02/27 01:56:24;;;;;;;11.98;3.75;;;;;;;0.03;100.00;103096.84;5221530;28;20103;-69
2022/02/27 01:58:55;;;;;;;23.40;4.70;;;;;;;-0.06;100.00;103103.25;5222087;28;20020;-68
2022/02/27 02:01:26;;;;;;;18.83;3.88;;;;;;;-0.15;100.00;103098.22;5221858;28;20025;-68
2022/02/27 02:03:56;;;;;;;16.50;4.28;;;;;;;-0.22;100.00;103092.25;5221754;28;20080;-69
2022/02/27 02:06:27;;;;;;;22.17;4.10;;;;;;;-0.28;100.00;103087.16;5221628;28;20103;-69
2022/02/27 02:08:57;;;;;;;16.10;4.10;;;;;;;-0.32;100.00;103096.03;5222209;28;20394;-68
2022/02/27 02:11:28;;;;;;;15.75;4.50;;;;;;;-0.35;100.00;103090.84;5221917;28;20118;-68
2022/02/27 02:13:59;;;;;;;21.35;5.13;;;;;;;-0.41;100.00;103089.22;5221456;28;20036;-69
2022/02/27 02:16:45;;;;;;;17.80;4.03;;;;;;;-0.48;100.00;103085.03;5222049;28;20025;-69
2022/02/27 02:19:29;;;;;;;14.18;4.53;;;;;;;-0.55;100.00;103080.84;5210964;28;20517;-68
2022/02/27 02:22:02;;;;;;;14.15;4.93;;;;;;;-0.63;100.00;103073.13;5221385;28;20056;-68
2022/02/27 02:24:33;;;;;;;9.95;3.78;;;;;;;-0.67;100.00;103076.72;5221517;28;20033;-69
2022/02/27 02:27:04;;;;;;;15.15;4.70;;;;;;;-0.74;100.00;103059.34;5221790;28;20017;-69
2022/02/27 02:29:34;;;;;;;20.58;4.03;;;;;;;-0.80;100.00;103065.66;5221456;28;20056;-69
2022/02/27 02:32:05;;;;;;;19.63;4.75;;;;;;;-0.87;100.00;103066.69;5225517;28;20017;-69
2022/02/27 02:34:36;;;;;;;14.95;4.68;;;;;;;-0.92;100.00;103067.72;5225405;28;20043;-69
2022/02/27 02:37:10;;;;;;;20.45;5.20;;;;;;;-0.98;100.00;103066.09;5225546;28;20020;-67
2022/02/27 02:39:41;;;;;;;11.40;4.05;;;;;;;-1.02;100.00;103067.06;5225391;28;20087;-67
2022/02/27 02:42:13;;;;;;;25.95;4.82;;;;;;;-1.04;100.00;103068.91;5225376;28;20445;-67
2022/02/27 02:44:43;;;;;;;17.02;4.43;;;;;;;-1.01;100.00;103057.41;5225290;28;20021;-68
2022/02/27 02:47:22;;;;;;;17.55;5.18;;;;;;;-0.96;100.00;103060.78;5225750;28;20028;-68
2022/02/27 02:49:52;;;;;;;22.52;4.97;;;;;;;-0.90;100.00;103064.16;5225605;28;20505;-68
2022/02/27 02:52:23;;;;;;;23.35;5.43;;;;;;;-0.84;100.00;103053.44;5224794;28;20025;-68
2022/02/27 02:54:54;;;;;;;18.08;4.80;;;;;;;-0.81;100.00;103060.41;5225319;28;20029;-68
2022/02/27 02:57:25;;;;;;;15.57;3.88;;;;;;;-0.79;100.00;103055.97;5223985;28;20383;-68
2022/02/27 02:59:56;;;;;;;12.25;3.85;;;;;;;-0.79;100.00;103059.47;5225274;28;20057;-67
2022/02/27 03:02:26;;;;;;;12.80;3.92;;;;;;;-0.73;100.00;103060.22;5224977;28;20067;-67
2022/02/27 03:04:58;;;;;;;10.50;3.55;;;;;;;-0.71;100.00;103053.13;5224889;28;20028;-67
2022/02/27 03:07:29;;;;;;;12.70;3.75;;;;;;;-0.72;100.00;103057.53;5225009;28;20028;-67
2022/02/27 03:10:00;;;;;;;22.63;4.05;;;;;;;-0.72;100.00;103054.03;5225314;28;20032;-68
2022/02/27 03:12:31;;;;;;;19.02;3.75;;;;;;;-0.77;100.00;103054.16;5224977;28;20486;-68
2022/02/27 03:15:06;;;;;;;19.05;4.10;;;;;;;-0.76;100.00;103052.38;5225057;28;20489;-68
2022/02/27 03:17:37;;;;;;;17.50;4.78;;;;;;;-0.73;100.00;103050.53;5224899;28;20028;-68
2022/02/27 03:20:08;;;;;;;12.43;4.00;;;;;;;-0.74;100.00;103053.22;5224852;28;20386;-68
2022/02/27 03:22:38;;;;;;;8.38;3.75;;;;;;;-0.74;100.00;103051.44;5224652;28;20433;-68
2022/02/27 03:25:09;;;;;;;15.55;3.75;;;;;;;-0.73;100.00;103050.53;5224435;28;20094;-68
2022/02/27 03:27:39;;;;;;;13.93;4.10;;;;;;;-0.76;100.00;103049.75;5225053;28;20061;-68
2022/02/27 03:30:10;;;;;;;14.10;3.90;;;;;;;-0.81;100.00;103040.19;5224670;28;20100;-68
2022/02/27 03:32:46;;;;;;;13.05;3.45;;;;;;;-0.81;100.00;103041.94;5224860;28;20096;-68
2022/02/27 03:35:18;;;;;;;15.63;3.45;;;;;;;-0.80;100.00;103034.03;5224219;28;20028;-68
2022/02/27 03:37:50;;;;;;;20.88;3.35;;;;;;;-0.80;100.00;103044.56;5224884;28;20029;-67
2022/02/27 03:40:20;;;;;;;14.63;3.33;;;;;;;-0.82;100.00;103035.81;5210591;28;20457;-68
2022/02/27 03:42:51;;;;;;;9.45;2.97;;;;;;;-0.85;100.00;103035.91;5224381;28;20108;-68
2022/02/27 03:45:22;;;;;;;9.50;3.13;;;;;;;-0.87;100.00;103029.81;5224120;28;20467;-67
2022/02/27 03:47:54;;;;;;;15.63;3.80;;;;;;;-0.89;100.00;103039.53;5224990;28;20336;-67
2022/02/27 03:50:25;;;;;;;10.75;3.92;;;;;;;-0.92;100.00;103030.81;5224952;28;20037;-68
2022/02/27 03:52:55;;;;;;;19.80;3.58;;;;;;;-0.94;100.00;103030.00;5223854;28;20021;-68
2022/02/27 03:55:26;;;;;;;20.38;4.47;;;;;;;-1.01;100.00;103026.66;5224512;28;20032;-68
2022/02/27 03:57:56;;;;;;;22.67;4.57;;;;;;;-1.06;100.00;103018.84;5224294;28;20177;-68
2022/02/27 04:00:26;;;;;;;13.63;4.20;;;;;;;-1.09;100.00;103032.13;5224259;28;20032;-68
2022/02/27 04:02:57;;;;;;;19.50;5.00;;;;;;;-1.15;100.00;103026.16;5224032;28;20673;-68
2022/02/27 04:05:28;;;;;;;15.93;4.65;;;;;;;-1.20;100.00;103021.00;5223188;28;20043;-68
2022/02/27 04:07:58;;;;;;;15.57;4.47;;;;;;;-1.23;100.00;103020.19;5224029;28;20075;-67
2022/02/27 04:10:30;;;;;;;19.88;4.50;;;;;;;-1.21;100.00;103023.63;5224119;28;20043;-68
2022/02/27 04:13:01;;;;;;;16.83;4.93;;;;;;;-1.14;100.00;103014.69;5223796;28;20033;-67
2022/02/27 04:15:32;;;;;;;12.38;4.13;;;;;;;-1.14;100.00;103012.06;5223937;28;20640;-68
2022/02/27 04:18:02;;;;;;;18.35;4.65;;;;;;;-1.15;100.00;103012.97;5212397;28;20111;-68
2022/02/27 04:20:33;;;;;;;15.73;3.63;;;;;;;-1.20;100.00;103012.22;5221487;28;20021;-68
2022/02/27 04:23:04;;;;;;;20.30;4.38;;;;;;;-1.26;100.00;103009.72;5223186;28;20031;-68
2022/02/27 04:25:35;;;;;;;23.00;5.05;;;;;;;-1.34;100.00;103008.16;5223086;28;20069;-70
2022/02/27 04:28:05;;;;;;;14.43;4.32;;;;;;;-1.42;100.00;103012.72;5223478;28;20373;-70
2022/02/27 04:30:36;;;;;;;17.77;4.03;;;;;;;-1.50;100.00;103012.06;5223770;28;20037;-71
2022/02/27 04:33:06;;;;;;;11.68;4.07;;;;;;;-1.55;100.00;103008.66;5223511;28;20029;-67
2022/02/27 04:35:37;;;;;;;17.92;4.40;;;;;;;-1.49;100.00;103005.88;5223522;28;20045;-67
2022/02/27 04:38:07;;;;;;;10.73;4.00;;;;;;;-1.45;100.00;102998.78;5223750;28;20460;-68
2022/02/27 04:40:38;;;;;;;16.60;3.97;;;;;;;-1.41;100.00;103003.91;5223394;28;20028;-67
2022/02/27 04:43:08;;;;;;;16.05;3.60;;;;;;;-1.41;100.00;103000.41;5223190;28;20029;-68
2022/02/27 04:45:39;;;;;;;11.18;3.72;;;;;;;-1.43;100.00;102991.69;5222994;28;20029;-68
2022/02/27 04:48:10;;;;;;;18.05;4.45;;;;;;;-1.44;100.00;103001.38;5222960;28;20068;-68
2022/02/27 04:50:40;;;;;;;16.35;3.75;;;;;;;-1.44;100.00;103000.50;5223047;28;20032;-67
2022/02/27 04:53:11;;;;;;;19.70;4.15;;;;;;;-1.48;100.00;103007.59;5222291;28;20016;-67
2022/02/27 04:55:41;;;;;;;17.52;3.60;;;;;;;-1.54;100.00;103002.50;5223339;28;20151;-67
2022/02/27 04:58:12;;;;;;;15.30;3.67;;;;;;;-1.60;100.00;103000.00;5222766;28;20017;-68
2022/02/27 05:00:42;;;;;;;14.25;3.63;;;;;;;-1.65;100.00;103000.13;5222672;28;20035;-68
2022/02/27 05:03:13;;;;;;;15.73;4.07;;;;;;;-1.66;100.00;103005.38;5222708;28;20032;-68
2022/02/27 05:05:43;;;;;;;13.07;3.10;;;;;;;-1.69;100.00;102998.44;5222042;28;20049;-67
2022/02/27 05:08:14;;;;;;;18.00;4.03;;;;;;;-1.71;100.00;102999.38;5223209;28;20017;-67
2022/02/27 05:10:44;;;;;;;9.63;3.75;;;;;;;-1.75;100.00;103003.00;5222543;28;20128;-68
2022/02/27 05:13:15;;;;;;;14.20;3.60;;;;;;;-1.77;100.00;102996.88;5222609;28;20082;-68
2022/02/27 05:15:46;;;;;;;17.60;4.07;;;;;;;-1.80;100.00;103002.22;5222182;28;20035;-67
2022/02/27 05:18:16;;;;;;;13.23;3.75;;;;;;;-1.79;100.00;102996.06;5222067;28;20120;-68
2022/02/27 05:20:46;;;;;;;18.02;3.53;;;;;;;-1.79;100.00;102994.28;5222268;28;20071;-67
2022/02/27 05:23:17;;;;;;;19.88;4.97;;;;;;;-1.77;100.00;102996.88;5222300;28;20443;-68
2022/02/27 05:25:48;;;;;;;13.70;3.47;;;;;;;-1.77;100.00;103000.38;5222369;28;20025;-67
2022/02/27 05:28:18;;;;;;;13.40;3.78;;;;;;;-1.78;100.00;102998.66;5222241;28;20364;-68
2022/02/27 05:30:48;;;;;;;12.93;4.38;;;;;;;-1.73;100.00;103004.66;5221978;28;20039;-67
2022/02/27 05:33:19;;;;;;;15.25;4.45;;;;;;;-1.71;100.00;102994.09;5222222;28;20021;-68
2022/02/27 05:35:50;;;;;;;15.15;4.30;;;;;;;-1.70;100.00;102995.84;5222283;28;20029;-68
2022/02/27 05:38:20;;;;;;;16.02;4.43;;;;;;;-1.67;100.00;103001.91;5222227;28;20017;-69
2022/02/27 05:40:50;;;;;;;18.83;4.22;;;;;;;-1.60;100.00;103000.00;5222434;28;20494;-67
2022/02/27 05:43:21;;;;;;;16.88;4.15;;;;;;;-1.54;100.00;103001.63;5220571;28;20073;-67
2022/02/27 05:45:52;;;;;;;17.15;4.20;;;;;;;-1.52;100.00;102998.03;5222364;28;20137;-68
2022/02/27 05:48:22;;;;;;;14.15;4.30;;;;;;;-1.48;100.00;102999.72;5221024;28;20028;-68
2022/02/27 05:50:53;;;;;;;24.55;4.78;;;;;;;-1.48;100.00;103004.97;5221812;28;20115;-68
2022/02/27 05:53:23;;;;;;;22.42;4.65;;;;;;;-1.46;100.00;103008.41;5221827;28;20074;-69
2022/02/27 05:55:56;;;;;;;18.48;4.80;;;;;;;-1.42;100.00;103012.72;5221405;28;20028;-69
2022/02/27 05:58:27;;;;;;;13.25;4.90;;;;;;;-1.46;100.00;103007.56;5221882;28;20033;-69
2022/02/27 06:00:58;;;;;;;18.83;5.50;;;;;;;-1.44;100.00;103014.53;5221915;28;20413;-69
2022/02/27 06:03:29;;;;;;;20.50;4.90;;;;;;;-1.43;100.00;103011.00;5221561;28;20028;-69
2022/02/27 06:05:59;;;;;;;21.75;5.45;;;;;;;-1.44;100.00;103009.28;5221243;28;20017;-69
2022/02/27 06:08:30;;;;;;;24.15;5.10;;;;;;;-1.38;100.00;103010.88;5221534;28;20055;-69
2022/02/27 06:11:01;;;;;;;14.70;4.15;;;;;;;-1.37;100.00;103010.84;5221585;28;20017;-69
2022/02/27 06:13:32;;;;;;;16.27;4.55;;;;;;;-1.40;100.00;103010.94;5221884;28;20471;-69
2022/02/27 06:16:02;;;;;;;17.48;4.97;;;;;;;-1.41;100.00;103009.19;5221009;28;20036;-69
2022/02/27 06:18:33;;;;;;;26.08;5.63;;;;;;;-1.41;100.00;103003.91;5220397;28;20399;-69
2022/02/27 06:21:04;;;;;;;23.60;5.70;;;;;;;-1.40;100.00;103002.19;5221435;28;20171;-68
2022/02/27 06:23:35;;;;;;;15.57;4.63;;;;;;;-1.41;100.00;103009.19;5221327;28;20063;-69
2022/02/27 06:26:05;;;;;;;17.30;4.82;;;;;;;-1.40;100.00;103012.72;5221448;28;20381;-69
2022/02/27 06:28:36;;;;;;;18.48;5.00;;;;;;;-1.40;100.00;103013.56;5221780;28;20120;-69
2022/02/27 06:31:06;;;;;;;26.00;5.55;;;;;;;-1.37;100.00;103015.25;5221428;28;20024;-69
2022/02/27 06:33:37;;;;;;;15.15;5.50;;;;;;;-1.34;100.00;103007.28;5221329;28;20427;-70
2022/02/27 06:36:08;;;;;;;18.17;5.57;;;;;;;-1.36;100.00;103020.47;5221624;28;20056;-69
2022/02/27 06:38:38;;;;;;;18.13;5.40;;;;;;;-1.40;100.00;103010.06;5221747;28;20025;-72
2022/02/27 06:41:12;;;;;;;19.55;5.93;;;;;;;-1.42;100.00;103017.13;5221599;28;20029;-71
2022/02/27 06:43:43;;;;;;;24.08;6.82;;;;;;;-1.46;100.00;103021.59;5221188;28;20746;-69
2022/02/27 06:46:13;;;;;;;28.17;8.10;;;;;;;-1.42;100.00;103007.44;5220995;28;20033;-70
2022/02/27 06:48:44;;;;;;;19.83;6.20;;;;;;;-1.38;100.00;103008.25;5221759;28;20017;-70
2022/02/27 06:51:15;;;;;;;22.55;6.13;;;;;;;-1.29;100.00;103007.19;5221550;28;20095;-70
2022/02/27 06:53:45;;;;;;;19.33;6.20;;;;;;;-1.17;100.00;103013.00;5221496;28;20029;-70
2022/02/27 06:56:15;;;;;;;17.75;6.03;;;;;;;-1.07;100.00;103005.72;5220674;28;20027;-70
2022/02/27 06:58:46;;;;;;;19.48;6.35;;;;;;;-0.97;100.00;103011.63;5221145;28;20377;-69
2022/02/27 07:01:18;;;;;;;23.55;6.03;;;;;;;-0.84;100.00;103015.69;5221222;28;20198;-70
2022/02/27 07:03:48;;;;;;;14.10;5.68;;;;;;;-0.76;100.00;103018.13;5221233;28;20139;-70
2022/02/27 07:06:19;;;;;;;31.35;6.78;;;;;;;-0.70;100.00;103010.03;5221044;28;20104;-69
2022/02/27 07:08:49;;;;;;;21.52;6.20;;;;;;;-0.63;100.00;103016.91;5220950;28;20028;-70
2022/02/27 07:11:20;;;;;;;16.13;5.85;;;;;;;-0.54;100.00;103021.94;5221405;28;20108;-70
2022/02/27 07:13:50;;;;;;;24.30;5.75;;;;;;;-0.39;100.00;103020.63;5221298;28;20508;-70
2022/02/27 07:16:22;;;;;;;22.77;5.45;;;;;;;-0.14;100.00;103020.81;5222866;28;20482;-70
2022/02/27 07:18:55;;;;;;;19.92;6.18;;;;;;;0.18;100.00;103022.50;5224907;28;20025;-70
2022/02/27 07:21:25;;;;;;;24.95;6.25;;;;;;;0.58;100.00;103022.13;5224723;28;20031;-70
2022/02/27 07:23:57;;;;;;;11.73;4.45;;;;;;;1.01;100.00;103020.75;5224520;28;20391;-70
2022/02/27 07:26:27;;;;;;;15.88;5.90;;;;;;;1.42;100.00;103023.72;5224291;28;20493;-71
2022/02/27 07:28:58;;;;;;;17.40;5.57;;;;;;;1.87;100.00;103020.34;5225201;28;20013;-71
2022/02/27 07:31:30;;;;;;;21.33;6.95;;;;;;;2.19;100.00;103021.75;5224758;28;20100;-70
2022/02/27 07:34:01;;;;;;;14.88;5.72;;;;;;;2.29;100.00;103013.41;5224675;28;20025;-71
2022/02/27 07:36:33;;;;;;;15.40;5.15;;;;;;;2.24;100.00;103025.94;5224180;28;20052;-71
2022/02/27 07:39:04;;;;;;;21.55;5.40;;;;;;;2.13;100.00;103022.88;5224660;28;20175;-71
2022/02/27 07:41:39;;;;;;;18.80;5.60;;;;;;;2.24;100.00;103014.50;5224141;28;20112;-70
2022/02/27 07:44:09;;;;;;;11.77;5.13;;;;;;;2.39;100.00;103011.25;5224418;28;20340;-70
2022/02/27 07:46:40;;;;;;;19.58;5.35;;;;;;;2.58;100.00;103022.84;5224457;28;20256;-71
2022/02/27 07:49:11;;;;;;;21.30;5.80;;;;;;;2.72;100.00;103014.34;5224245;28;20036;-71
2022/02/27 07:51:42;;;;;;;15.23;6.32;;;;;;;3.10;100.00;103011.88;5224484;28;20024;-71
2022/02/27 07:54:13;;;;;;;27.35;5.85;;;;;;;3.53;100.00;103020.66;5224038;28;20086;-71
2022/02/27 07:56:44;;;;;;;16.80;7.07;;;;;;;3.83;100.00;103018.41;5224558;28;20408;-70
2022/02/27 07:59:14;;;;;;;14.75;5.60;;;;;;;4.25;100.00;103025.31;5224199;28;20021;-71
2022/02/27 08:01:45;;;;;;;22.77;6.25;;;;;;;4.61;100.00;103017.38;5224020;28;20319;-71
2022/02/27 08:04:16;;;;;;;15.18;5.50;;;;;;;4.85;100.00;103016.19;5223881;28;20017;-71
2022/02/27 08:06:46;;;;;;;12.45;4.85;;;;;;;4.90;100.00;103018.59;5224840;28;20097;-71
2022/02/27 08:09:17;;;;;;;18.50;5.47;;;;;;;5.11;100.00;103021.97;5223557;28;20032;-71
2022/02/27 08:11:47;;;;;;;16.52;5.50;;;;;;;5.27;100.00;103012.31;5223981;28;20060;-71
2022/02/27 08:14:18;;;;;;;17.42;5.72;;;;;;;5.51;100.00;103018.13;5223936;28;20055;-71
2022/02/27 08:16:48;;;;;;;20.55;6.28;;;;;;;5.61;100.00;103022.03;5223929;28;20025;-71
2022/02/27 08:19:19;;;;;;;17.27;5.63;;;;;;;5.82;100.00;103013.84;5224215;28;20116;-71
2022/02/27 08:21:49;;;;;;;20.73;5.43;;;;;;;5.82;100.00;103014.69;5223133;28;20549;-71
2022/02/27 08:24:20;;;;;;;20.85;6.07;;;;;;;6.15;100.00;103019.16;5223359;28;20455;-71
2022/02/27 08:26:50;;;;;;;18.70;5.47;;;;;;;6.30;100.00;103023.66;5222780;28;20036;-71
2022/02/27 08:29:21;;;;;;;19.45;5.32;;;;;;;6.49;100.00;103021.69;5223295;28;20025;-71
2022/02/27 08:31:51;;;;;;;12.00;4.30;;;;;;;6.69;100.00;103012.53;5223001;28;20021;-71
2022/02/27 08:34:25;;;;;;;16.73;4.90;;;;;;;6.60;100.00;103013.06;5223153;28;20103;-71
2022/02/27 08:36:56;;;;;;;12.55;4.18;;;;;;;6.68;100.00;103020.66;5223363;28;20106;-71
2022/02/27 08:39:26;;;;;;;12.60;5.20;;;;;;;6.86;100.00;103018.69;5223621;28;20024;-71
2022/02/27 08:41:57;;;;;;;14.40;4.57;;;;;;;7.01;100.00;103016.00;5223386;28;20271;-71
2022/02/27 08:44:28;;;;;;;13.52;4.20;;;;;;;7.16;100.00;103024.91;5222937;28;20116;-71
2022/02/27 08:46:59;;;;;;;14.40;4.70;;;;;;;7.11;100.00;103018.13;5223291;28;20112;-71
2022/02/27 08:49:31;;;;;;;19.60;5.75;;;;;;;7.40;100.00;103016.38;5223374;28;20490;-71
2022/02/27 08:52:02;;;;;;;13.15;4.15;;;;;;;7.48;100.00;103027.44;5223016;28;20032;-71
2022/02/27 08:54:33;;;;;;;16.45;4.40;;;;;;;7.57;100.00;103020.69;5222869;28;20517;-71
2022/02/27 08:57:05;;;;;;;15.35;4.38;;;;;;;7.81;100.00;103024.53;5222567;28;20032;-71
2022/02/27 08:59:35;;;;;;;14.48;4.82;;;;;;;7.90;100.00;103023.97;5222822;28;20028;-71
2022/02/27 09:02:06;;;;;;;12.85;4.05;;;;;;;7.98;100.00;103019.00;5222772;28;20025;-71
2022/02/27 09:04:37;;;;;;;9.73;3.38;;;;;;;8.38;100.00;103016.47;5222531;28;20466;-71
2022/02/27 09:07:07;;;;;;;15.65;3.75;;;;;;;8.18;100.00;103019.53;5222545;28;20074;-71
2022/02/27 09:09:38;;;;;;;11.05;3.47;;;;;;;8.31;100.00;103007.09;5222536;28;20036;-71
2022/02/27 09:12:09;;;;;;;10.35;3.53;;;;;;;8.27;100.00;103016.28;5222537;28;20029;-71
2022/02/27 09:14:42;;;;;;;7.45;3.10;;;;;;;8.48;95.13;103014.94;5222404;28;20029;-71
2022/02/27 09:17:13;;;;;;;10.13;3.70;;;;;;;8.50;97.77;103012.16;5222410;28;20120;-71
2022/02/27 09:19:43;;;;;;;8.48;3.53;;;;;;;8.63;100.00;103009.53;5221437;28;20484;-71
2022/02/27 09:22:14;;;;;;;9.68;3.50;;;;;;;9.06;91.25;103004.84;5220729;28;20162;-71
2022/02/27 09:24:45;;;;;;;10.52;3.58;;;;;;;9.32;87.27;103005.75;5222241;28;20479;-72
2022/02/27 09:27:16;;;;;;;15.00;3.70;;;;;;;9.06;81.01;103003.03;5222445;28;20039;-71
2022/02/27 09:29:46;;;;;;;14.52;3.70;;;;;;;9.15;86.83;103004.22;5222744;28;20025;-71
2022/02/27 09:32:17;;;;;;;10.80;3.25;;;;;;;9.04;87.12;103018.34;5222135;28;20021;-71
2022/02/27 09:34:48;;;;;;;9.10;3.15;;;;;;;8.96;81.13;103009.13;5221939;28;20032;-71
2022/02/27 09:37:18;;;;;;;9.45;2.95;;;;;;;9.39;86.29;103007.06;5222339;28;20320;-71
2022/02/27 09:39:49;;;;;;;12.27;4.03;;;;;;;9.33;78.21;103000.28;5222082;28;20363;-71
2022/02/27 09:42:19;;;;;;;6.75;3.10;;;;;;;8.90;79.80;103004.19;5221924;28;20467;-71
2022/02/27 09:44:50;;;;;;;9.75;3.10;;;;;;;8.94;86.46;102998.53;5221691;28;20068;-71
2022/02/27 09:47:21;;;;;;;7.03;3.13;;;;;;;9.12;91.26;102993.72;5222055;28;20295;-71
2022/02/27 09:49:53;;;;;;;8.07;3.42;;;;;;;9.43;86.01;102997.81;5222145;28;20075;-71
2022/02/27 09:52:24;;;;;;;9.52;2.65;;;;;;;9.81;81.03;102994.28;5221614;28;20021;-71
2022/02/27 09:54:54;;;;;;;5.82;2.65;;;;;;;9.98;74.93;102993.06;5221834;28;20502;-71
2022/02/27 09:57:25;;;;;;;5.93;2.65;;;;;;;10.01;76.91;102991.03;5221535;28;20036;-71
2022/02/27 09:59:55;;;;;;;7.68;2.53;;;;;;;9.42;76.65;102998.78;5222155;28;20055;-71
2022/02/27 10:02:26;;;;;;;6.07;2.80;;;;;;;9.90;71.59;103001.69;5221727;28;20021;-71
2022/02/27 10:04:59;;;;;;;6.97;2.90;;;;;;;9.71;71.42;103001.25;5221985;28;20059;-71
2022/02/27 10:07:30;;;;;;;7.28;2.90;;;;;;;8.92;74.64;103002.25;5221910;28;20077;-71
2022/02/27 10:10:05;;;;;;;7.20;2.53;;;;;;;9.04;77.60;103001.44;5221428;28;20091;-71
2022/02/27 10:12:35;;;;;;;8.65;2.72;;;;;;;9.66;74.36;102998.91;5221672;28;20455;-71
2022/02/27 10:15:08;;;;;;;6.22;2.70;;;;;;;9.31;76.54;102996.00;5221774;28;20116;-71
2022/02/27 10:17:41;;;;;;;4.68;2.35;;;;;;;9.67;79.00;102992.56;5214414;28;20028;-71
2022/02/27 10:20:15;;;;;;;9.07;2.70;;;;;;;9.14;76.28;102996.31;5216556;28;20502;-71
2022/02/27 10:22:48;;;;;;;9.65;3.00;;;;;;;9.38;76.89;102999.97;5221405;28;20036;-71
2022/02/27 10:25:21;;;;;;;8.30;2.47;;;;;;;9.19;86.55;102997.72;5221458;28;20021;-71
2022/02/27 10:27:55;;;;;;;8.30;2.50;;;;;;;8.81;80.42;102989.59;5221846;28;20025;-71
2022/02/27 10:30:28;;;;;;;8.48;2.50;;;;;;;9.20;81.73;102986.03;5221577;28;20059;-71
2022/02/27 10:33:00;;;;;;;7.93;2.50;;;;;;;9.23;76.68;102985.81;5221030;28;20179;-72
2022/02/27 10:35:33;;;;;;;10.15;2.95;;;;;;;8.99;73.85;102984.81;5221645;28;20074;-72
2022/02/27 10:38:05;;;;;;;8.18;3.15;;;;;;;8.88;81.22;102977.50;5221409;28;20470;-71
2022/02/27 10:40:39;;;;;;;5.15;2.00;;;;;;;9.27;85.32;102976.59;5221764;28;20025;-71
2022/02/27 10:43:11;;;;;;;7.00;2.20;;;;;;;8.84;75.84;102969.81;5221226;28;20116;-72
2022/02/27 10:45:43;;;;;;;3.55;1.70;;;;;;;8.76;72.80;102972.97;5221438;28;20021;-72
2022/02/27 10:48:15;;;;;;;4.25;1.75;;;;;;;8.75;72.68;102977.47;5221453;28;20394;-71
2022/02/27 10:50:46;;;;;;;6.78;2.08;;;;;;;8.16;77.32;102976.88;5222626;28;20074;-71
2022/02/27 10:53:16;;;;;;;6.90;1.88;;;;;;;8.39;80.56;102979.91;5225398;28;20025;-71
2022/02/27 10:55:58;;;;;;;4.90;1.85;;;;;;;8.63;80.34;102972.91;5225667;28;20025;-72
2022/02/27 10:58:46;;;;;;;7.60;2.10;;;;;;;8.87;83.33;102972.25;5225971;28;20236;-71
2022/02/27 11:01:21;;;;;;;5.80;2.08;;;;;;;8.76;76.58;102965.81;5225284;28;20363;-71
2022/02/27 11:03:55;;;;;;;6.28;2.60;;;;;;;8.78;70.50;102971.03;5225142;28;20055;-72
2022/02/27 11:06:26;;;;;;;4.82;1.67;;;;;;;8.82;73.54;102968.06;5224824;28;20383;-71
2022/02/27 11:08:58;;;;;;;3.63;1.80;;;;;;;8.79;73.37;102964.75;5225189;28;20355;-71
2022/02/27 11:11:30;;;;;;;6.35;1.98;;;;;;;8.89;78.14;102957.81;5225016;28;20040;-71
2022/02/27 11:14:02;;;;;;;4.18;1.50;;;;;;;9.23;81.65;102960.84;5224714;28;20036;-72
2022/02/27 11:16:33;;;;;;;6.60;2.28;;;;;;;9.11;74.74;102951.00;5224506;28;20501;-71
2022/02/27 11:19:03;;;;;;;3.53;1.67;;;;;;;9.38;76.85;102949.06;5224764;28;20107;-72
2022/02/27 11:21:34;;;;;;;6.68;2.10;;;;;;;9.36;73.54;102948.31;5224779;28;20028;-71
2022/02/27 11:24:08;;;;;;;6.30;2.00;;;;;;;9.29;71.07;102941.69;5224529;28;20088;-71
2022/02/27 11:26:38;;;;;;;4.93;1.90;;;;;;;9.32;73.78;102954.84;5223401;28;20024;-71
2022/02/27 11:29:10;;;;;;;2.67;1.55;;;;;;;9.31;80.13;102945.97;5224670;28;20040;-72
2022/02/27 11:31:41;;;;;;;4.72;1.70;;;;;;;9.45;72.95;102939.66;5225169;28;20367;-72
2022/02/27 11:34:15;;;;;;;5.60;1.60;;;;;;;9.56;79.62;102939.75;5224536;28;20182;-72